sensor_id;sensor_type;location;lat;lon;timestamp;pressure;altitude;pressure_sealevel;temperature;humidity
2178;BME280;1095;50.992;6.798;2023-02-12T00:01:00;103109.56;;;6.38;100.00
2178;BME280;1095;50.992;6.798;2023-02-12T00:03:28;103113.06;;;6.37;100.00
2178;BME280;1095;50.992;6.798;2023-02-12T00:05:59;103110.47;;;6.37;100.00
2178;BME280;1095;50.992;6.798;2023-02-12T00:08:26;103114.75;;;6.38;100.00
2178;BME280;1095;50.992;6.798;2023-02-12T00:10:53;103110.41;;;6.39;100.00
2178;BME280;1095;50.992;6.798;2023-02-12T00:13:20;103107.88;;;6.37;100.00
2178;BME280;1095;50.992;6.798;2023-02-12T00:15:46;103111.19;;;6.41;100.00
2178;BME280;1095;50.992;6.798;2023-02-12T00:18:13;103116.25;;;6.44;100.00
2178;BME280;1095;50.992;6.798;2023-02-12T00:20:41;103113.44;;;6.48;100.00
2178;BME280;1095;50.992;6.798;2023-02-12T00:23:09;103108.31;;;6.47;100.00
2178;BME280;1095;50.992;6.798;2023-02-12T00:25:40;103108.44;;;6.44;100.00
2178;BME280;1095;50.992;6.798;2023-02-12T00:28:06;103105.19;;;6.39;100.00
2178;BME280;1095;50.992;6.798;2023-02-12T00:30:34;103109.41;;;6.41;100.00
2178;BME280;1095;50.992;6.798;2023-02-12T00:33:00;103113.00;;;6.39;100.00
2178;BME280;1095;50.992;6.798;2023-02-12T00:35:27;103113.13;;;6.36;100.00
2178;BME280;1095;50.992;6.798;2023-02-12T00:37:55;103120.53;;;6.45;100.00
2178;BME280;1095;50.992;6.798;2023-02-12T00:40:22;103112.94;;;6.40;100.00
2178;BME280;1095;50.992;6.798;2023-02-12T00:42:48;103116.38;;;6.41;100.00
2178;BME280;1095;50.992;6.798;2023-02-12T00:45:15;103113.06;;;6.37;100.00
2178;BME280;1095;50.992;6.798;2023-02-12T00:47:42;103117.50;;;6.35;100.00
2178;BME280;1095;50.992;6.798;2023-02-12T00:50:09;103112.22;;;6.37;100.00
2178;BME280;1095;50.992;6.798;2023-02-12T00:52:35;103107.03;;;6.37;100.00
2178;BME280;1095;50.992;6.798;2023-02-12T00:55:04;103111.38;;;6.36;100.00
2178;BME280;1095;50.992;6.798;2023-02-12T00:57:31;103108.84;;;6.35;100.00
2178;BME280;1095;50.992;6.798;2023-02-12T00:59:58;103105.06;;;6.42;100.00
2178;BME280;1095;50.992;6.798;2023-02-12T01:02:24;103109.50;;;6.40;100.00
2178;BME280;1095;50.992;6.798;2023-02-12T01:04:51;103105.19;;;6.39;100.00
2178;BME280;1095;50.992;6.798;2023-02-12T01:07:18;103106.97;;;6.38;100.00
2178;BME280;1095;50.992;6.798;2023-02-12T01:09:44;103104.44;;;6.37;100.00
2178;BME280;1095;50.992;6.798;2023-02-12T01:12:12;103108.72;;;6.38;100.00
2178;BME280;1095;50.992;6.798;2023-02-12T01:14:39;103102.94;;;6.31;100.00
2178;BME280;1095;50.992;6.798;2023-02-12T01:17:06;103101.97;;;6.33;100.00
2178;BME280;1095;50.992;6.798;2023-02-12T01:19:33;103112.34;;;6.33;100.00
2178;BME280;1095;50.992;6.798;2023-02-12T01:22:00;103109.63;;;6.37;100.00
2178;BME280;1095;50.992;6.798;2023-02-12T01:24:26;103108.84;;;6.35;100.00
2178;BME280;1095;50.992;6.798;2023-02-12T01:26:53;103106.31;;;6.33;100.00
2178;BME280;1095;50.992;6.798;2023-02-12T01:29:21;103105.47;;;6.32;100.00
2178;BME280;1095;50.992;6.798;2023-02-12T01:31:48;103104.81;;;6.27;100.00
2178;BME280;1095;50.992;6.798;2023-02-12T01:34:14;103094.34;;;6.29;100.00
2178;BME280;1095;50.992;6.798;2023-02-12T01:36:41;103103.34;;;6.22;100.00
2178;BME280;1095;50.992;6.798;2023-02-12T01:39:09;103095.75;;;6.17;100.00
2178;BME280;1095;50.992;6.798;2023-02-12T01:41:39;103107.13;;;6.15;100.00
2178;BME280;1095;50.992;6.798;2023-02-12T01:44:12;103107.22;;;6.13;100.00
2178;BME280;1095;50.992;6.798;2023-02-12T01:46:42;103111.75;;;6.08;100.00
2178;BME280;1095;50.992;6.798;2023-02-12T01:49:12;103102.16;;;6.10;100.00
2178;BME280;1095;50.992;6.798;2023-02-12T01:51:40;103107.22;;;6.13;100.00
2178;BME280;1095;50.992;6.798;2023-02-12T01:54:09;103105.59;;;6.11;100.00
2178;BME280;1095;50.992;6.798;2023-02-12T01:56:37;103100.25;;;6.14;100.00
2178;BME280;1095;50.992;6.798;2023-02-12T01:59:05;103106.38;;;6.13;100.00
2178;BME280;1095;50.992;6.798;2023-02-12T02:01:32;103096.88;;;6.12;100.00
2178;BME280;1095;50.992;6.798;2023-02-12T02:04:04;103102.34;;;6.06;100.00
2178;BME280;1095;50.992;6.798;2023-02-12T02:06:34;103092.91;;;6.03;100.00
2178;BME280;1095;50.992;6.798;2023-02-12T02:09:03;103099.03;;;6.02;100.00
2178;BME280;1095;50.992;6.798;2023-02-12T02:11:30;103103.38;;;6.02;100.00
2178;BME280;1095;50.992;6.798;2023-02-12T02:14:13;103106.81;;;6.02;100.00
2178;BME280;1095;50.992;6.798;2023-02-12T02:26:53;103110.47;;;5.98;100.00
2178;BME280;1095;50.992;6.798;2023-02-12T02:32:42;103105.13;;;6.01;100.00
2178;BME280;1095;50.992;6.798;2023-02-12T02:35:13;103106.03;;;6.00;100.00
2178;BME280;1095;50.992;6.798;2023-02-12T02:37:47;103105.13;;;6.01;100.00
2178;BME280;1095;50.992;6.798;2023-02-12T02:42:51;103092.91;;;6.03;100.00
2178;BME280;1095;50.992;6.798;2023-02-12T02:45:23;103093.00;;;6.02;100.00
2178;BME280;1095;50.992;6.798;2023-02-12T02:47:56;103100.84;;;6.00;100.00
2178;BME280;1095;50.992;6.798;2023-02-12T02:50:26;103105.97;;;6.02;100.00
2178;BME280;1095;50.992;6.798;2023-02-12T02:52:57;103100.38;;;6.11;100.00
2178;BME280;1095;50.992;6.798;2023-02-12T02:55:29;103100.53;;;6.08;100.00
2178;BME280;1095;50.992;6.798;2023-02-12T02:58:01;103101.38;;;6.08;100.00
2178;BME280;1095;50.992;6.798;2023-02-12T03:00:34;103098.00;;;6.06;100.00
2178;BME280;1095;50.992;6.798;2023-02-12T03:03:08;103094.59;;;6.04;100.00
2178;BME280;1095;50.992;6.798;2023-02-12T03:05:39;103101.50;;;6.05;100.00
2178;BME280;1095;50.992;6.798;2023-02-12T03:08:10;103094.47;;;6.07;100.00
2178;BME280;1095;50.992;6.798;2023-02-12T03:10:41;103088.38;;;6.08;100.00
2178;BME280;1095;50.992;6.798;2023-02-12T03:13:11;103088.38;;;6.08;100.00
2178;BME280;1095;50.992;6.798;2023-02-12T03:15:43;103079.84;;;6.05;100.00
2178;BME280;1095;50.992;6.798;2023-02-12T03:18:15;103088.44;;;6.07;100.00
2178;BME280;1095;50.992;6.798;2023-02-12T03:20:47;103087.59;;;6.06;100.00
2178;BME280;1095;50.992;6.798;2023-02-12T03:23:20;103090.25;;;6.05;100.00
2178;BME280;1095;50.992;6.798;2023-02-12T03:25:52;103089.41;;;6.04;100.00
2178;BME280;1095;50.992;6.798;2023-02-12T03:28:26;103078.38;;;5.99;100.00
2178;BME280;1095;50.992;6.798;2023-02-12T03:30:58;103088.63;;;6.02;100.00
2178;BME280;1095;50.992;6.798;2023-02-12T03:33:36;103087.97;;;5.97;100.00
2178;BME280;1095;50.992;6.798;2023-02-12T03:36:09;103086.38;;;5.94;100.00
2178;BME280;1095;50.992;6.798;2023-02-12T03:38:43;103077.66;;;5.95;100.00
2178;BME280;1095;50.992;6.798;2023-02-12T03:41:15;103087.22;;;5.95;100.00
2178;BME280;1095;50.992;6.798;2023-02-12T03:43:48;103084.75;;;5.92;100.00
2178;BME280;1095;50.992;6.798;2023-02-12T03:46:20;103085.72;;;5.89;100.00
2178;BME280;1095;50.992;6.798;2023-02-12T03:48:56;103082.22;;;5.90;100.00
2178;BME280;1095;50.992;6.798;2023-02-12T03:51:29;103075.91;;;5.96;100.00
2178;BME280;1095;50.992;6.798;2023-02-12T03:53:59;103088.13;;;5.94;100.00
2178;BME280;1095;50.992;6.798;2023-02-12T03:56:32;103087.16;;;5.96;100.00
2178;BME280;1095;50.992;6.798;2023-02-12T03:59:00;103080.31;;;5.94;100.00
2178;BME280;1095;50.992;6.798;2023-02-12T04:01:27;103086.16;;;5.99;100.00
2178;BME280;1095;50.992;6.798;2023-02-12T04:03:56;103091.94;;;6.06;100.00
2178;BME280;1095;50.992;6.798;2023-02-12T04:06:26;103082.25;;;6.09;100.00
2178;BME280;1095;50.992;6.798;2023-02-12T04:08:55;103081.53;;;6.06;100.00
2178;BME280;1095;50.992;6.798;2023-02-12T04:11:28;103090.97;;;6.08;100.00
2178;BME280;1095;50.992;6.798;2023-02-12T04:14:10;103092.78;;;6.06;100.00
2178;BME280;1095;50.992;6.798;2023-02-12T04:16:43;103090.06;;;6.09;100.00
2178;BME280;1095;50.992;6.798;2023-02-12T04:19:17;103092.78;;;6.06;100.00
2178;BME280;1095;50.992;6.798;2023-02-12T04:21:56;103100.53;;;6.08;100.00
2178;BME280;1095;50.992;6.798;2023-02-12T04:24:33;103106.69;;;6.05;100.00
2178;BME280;1095;50.992;6.798;2023-02-12T04:27:09;103108.53;;;6.03;100.00
2178;BME280;1095;50.992;6.798;2023-02-12T04:29:41;103096.50;;;6.01;100.00
2178;BME280;1095;50.992;6.798;2023-02-12T04:32:16;103107.66;;;6.03;100.00
2178;BME280;1095;50.992;6.798;2023-02-12T04:34:49;103112.03;;;6.02;100.00
2178;BME280;1095;50.992;6.798;2023-02-12T04:37:20;103113.91;;;5.98;100.00
2178;BME280;1095;50.992;6.798;2023-02-12T04:39:48;103116.44;;;6.00;100.00
2178;BME280;1095;50.992;6.798;2023-02-12T04:42:16;103118.97;;;6.02;100.00
2178;BME280;1095;50.992;6.798;2023-02-12T04:44:43;103121.66;;;6.00;100.00
2178;BME280;1095;50.992;6.798;2023-02-12T04:47:11;103121.56;;;6.02;100.00
2178;BME280;1095;50.992;6.798;2023-02-12T04:49:37;103123.34;;;6.01;100.00
2178;BME280;1095;50.992;6.798;2023-02-12T04:52:05;103126.84;;;6.00;100.00
2178;BME280;1095;50.992;6.798;2023-02-12T04:54:32;103127.75;;;5.99;100.00
2178;BME280;1095;50.992;6.798;2023-02-12T04:56:59;103121.56;;;6.02;100.00
2178;BME280;1095;50.992;6.798;2023-02-12T04:59:26;103123.88;;;5.87;100.00
2178;BME280;1095;50.992;6.798;2023-02-12T05:01:53;103117.63;;;5.93;100.00
2178;BME280;1095;50.992;6.798;2023-02-12T05:04:19;103129.69;;;5.94;100.00
2178;BME280;1095;50.992;6.798;2023-02-12T05:06:47;103127.94;;;5.94;100.00
2178;BME280;1095;50.992;6.798;2023-02-12T05:09:17;103127.94;;;5.94;100.00
2178;BME280;1095;50.992;6.798;2023-02-12T05:11:44;103119.31;;;5.94;100.00
2178;BME280;1095;50.992;6.798;2023-02-12T05:14:11;103125.41;;;5.93;100.00
2178;BME280;1095;50.992;6.798;2023-02-12T05:16:38;103125.41;;;5.93;100.00
2178;BME280;1095;50.992;6.798;2023-02-12T05:19:04;103117.63;;;5.93;100.00
2178;BME280;1095;50.992;6.798;2023-02-12T05:21:33;103122.69;;;5.96;100.00
2178;BME280;1095;50.992;6.798;2023-02-12T05:24:00;103108.91;;;5.94;100.00
2178;BME280;1095;50.992;6.798;2023-02-12T05:26:28;103115.94;;;5.92;100.00
2178;BME280;1095;50.992;6.798;2023-02-12T05:28:55;103123.66;;;5.93;100.00
2178;BME280;1095;50.992;6.798;2023-02-12T05:31:22;103126.25;;;5.93;100.00
2178;BME280;1095;50.992;6.798;2023-02-12T05:33:49;103116.75;;;5.92;100.00
2178;BME280;1095;50.992;6.798;2023-02-12T05:36:17;103121.78;;;5.97;100.00
2178;BME280;1095;50.992;6.798;2023-02-12T05:38:44;103124.38;;;5.97;100.00
2178;BME280;1095;50.992;6.798;2023-02-12T05:41:12;103129.56;;;5.97;100.00
2178;BME280;1095;50.992;6.798;2023-02-12T05:43:41;103129.69;;;5.94;100.00
2178;BME280;1095;50.992;6.798;2023-02-12T05:46:08;103138.22;;;5.97;100.00
2178;BME280;1095;50.992;6.798;2023-02-12T05:48:35;103131.25;;;5.98;100.00
2178;BME280;1095;50.992;6.798;2023-02-12T05:51:04;103126.66;;;6.05;100.00
2178;BME280;1095;50.992;6.798;2023-02-12T05:53:31;103134.63;;;6.00;100.00
2178;BME280;1095;50.992;6.798;2023-02-12T05:56:09;103135.41;;;6.02;100.00
2178;BME280;1095;50.992;6.798;2023-02-12T05:58:36;103139.56;;;6.06;100.00
2178;BME280;1095;50.992;6.798;2023-02-12T06:01:08;103141.28;;;6.07;100.00
2178;BME280;1095;50.992;6.798;2023-02-12T06:03:35;103143.94;;;6.06;100.00
2178;BME280;1095;50.992;6.798;2023-02-12T06:06:02;103139.63;;;6.05;100.00
2178;BME280;1095;50.992;6.798;2023-02-12T06:08:29;103146.47;;;6.07;100.00
2178;BME280;1095;50.992;6.798;2023-02-12T06:10:59;103132.31;;;6.14;100.00
2178;BME280;1095;50.992;6.798;2023-02-12T06:13:25;103140.16;;;6.13;100.00
2178;BME280;1095;50.992;6.798;2023-02-12T06:15:52;103133.81;;;6.18;100.00
2178;BME280;1095;50.992;6.798;2023-02-12T06:18:20;103130.59;;;6.13;100.00
2178;BME280;1095;50.992;6.798;2023-02-12T06:20:46;103126.94;;;6.17;100.00
2178;BME280;1095;50.992;6.798;2023-02-12T06:23:13;103121.25;;;6.09;100.00
2178;BME280;1095;50.992;6.798;2023-02-12T06:25:40;103123.00;;;6.09;100.00
2178;BME280;1095;50.992;6.798;2023-02-12T06:28:06;103122.16;;;6.08;100.00
2178;BME280;1095;50.992;6.798;2023-02-12T06:30:33;103123.34;;;6.01;100.00
2178;BME280;1095;50.992;6.798;2023-02-12T06:33:00;103135.53;;;5.99;100.00
2178;BME280;1095;50.992;6.798;2023-02-12T06:35:28;103141.53;;;5.79;100.00
2178;BME280;1095;50.992;6.798;2023-02-12T06:37:55;103139.78;;;5.80;100.00
2178;BME280;1095;50.992;6.798;2023-02-12T06:40:22;103141.66;;;5.76;100.00
2178;BME280;1095;50.992;6.798;2023-02-12T06:45:30;103146.78;;;5.78;100.00
2178;BME280;1095;50.992;6.798;2023-02-12T06:47:57;103145.16;;;5.75;100.00
2178;BME280;1095;50.992;6.798;2023-02-12T06:50:23;103147.81;;;5.74;100.00
2178;BME280;1095;50.992;6.798;2023-02-12T06:52:51;103152.00;;;5.78;100.00
2178;BME280;1095;50.992;6.798;2023-02-12T06:55:18;103162.50;;;5.75;100.00
2178;BME280;1095;50.992;6.798;2023-02-12T06:57:44;103170.19;;;5.78;100.00
2178;BME280;1095;50.992;6.798;2023-02-12T07:00:12;103167.72;;;5.75;100.00
2178;BME280;1095;50.992;6.798;2023-02-12T07:02:38;103172.06;;;5.74;100.00
2178;BME280;1095;50.992;6.798;2023-02-12T07:05:05;103171.09;;;5.77;100.00
2178;BME280;1095;50.992;6.798;2023-02-12T07:07:32;103180.50;;;5.79;100.00
2178;BME280;1095;50.992;6.798;2023-02-12T07:10:00;103177.78;;;5.82;100.00
2178;BME280;1095;50.992;6.798;2023-02-12T07:12:26;103173.16;;;5.90;100.00
2178;BME280;1095;50.992;6.798;2023-02-12T07:14:53;103175.75;;;5.90;100.00
2178;BME280;1095;50.992;6.798;2023-02-12T07:17:19;103178.94;;;5.97;100.00
2178;BME280;1095;50.992;6.798;2023-02-12T07:19:46;103180.63;;;5.98;100.00
2178;BME280;1095;50.992;6.798;2023-02-12T07:22:12;103179.66;;;6.01;100.00
2178;BME280;1095;50.992;6.798;2023-02-12T07:24:39;103181.41;;;6.00;100.00
2178;BME280;1095;50.992;6.798;2023-02-12T07:27:07;103186.63;;;6.00;100.00
2178;BME280;1095;50.992;6.798;2023-02-12T07:29:34;103181.41;;;6.00;100.00
2178;BME280;1095;50.992;6.798;2023-02-12T07:32:00;103184.69;;;6.05;100.00
2178;BME280;1095;50.992;6.798;2023-02-12T07:34:27;103185.53;;;6.06;100.00
2178;BME280;1095;50.992;6.798;2023-02-12T07:36:53;103188.13;;;6.06;100.00
2178;BME280;1095;50.992;6.798;2023-02-12T07:39:22;103188.66;;;6.14;100.00
2178;BME280;1095;50.992;6.798;2023-02-12T07:41:48;103193.69;;;6.17;100.00
2178;BME280;1095;50.992;6.798;2023-02-12T07:44:16;103195.91;;;6.26;100.00
2178;BME280;1095;50.992;6.798;2023-02-12T07:46:44;103190.63;;;6.27;100.00
2178;BME280;1095;50.992;6.798;2023-02-12T07:49:13;103197.41;;;6.31;100.00
2178;BME280;1095;50.992;6.798;2023-02-12T07:51:40;103190.50;;;6.30;100.00
2178;BME280;1095;50.992;6.798;2023-02-12T07:54:07;103196.41;;;6.34;100.00
2178;BME280;1095;50.992;6.798;2023-02-12T07:56:35;103186.03;;;6.34;100.00
2178;BME280;1095;50.992;6.798;2023-02-12T07:59:06;103196.03;;;6.43;100.00
2178;BME280;1095;50.992;6.798;2023-02-12T08:01:36;103194.13;;;6.47;100.00
2178;BME280;1095;50.992;6.798;2023-02-12T08:04:05;103197.38;;;6.52;100.00
2178;BME280;1095;50.992;6.798;2023-02-12T08:06:33;103204.94;;;6.58;100.00
2178;BME280;1095;50.992;6.798;2023-02-12T08:09:02;103205.69;;;6.60;100.00
2178;BME280;1095;50.992;6.798;2023-02-12T08:11:29;103200.19;;;6.66;100.00
2178;BME280;1095;50.992;6.798;2023-02-12T08:13:57;103206.69;;;6.76;100.00
2178;BME280;1095;50.992;6.798;2023-02-12T08:16:26;103205.28;;;6.69;100.00
2178;BME280;1095;50.992;6.798;2023-02-12T08:18:54;103209.69;;;6.67;100.00
2178;BME280;1095;50.992;6.798;2023-02-12T08:21:25;103211.59;;;6.63;100.00
2178;BME280;1095;50.992;6.798;2023-02-12T08:23:53;103214.97;;;6.65;100.00
2178;BME280;1095;50.992;6.798;2023-02-12T08:26:21;103216.59;;;6.68;100.00
2178;BME280;1095;50.992;6.798;2023-02-12T08:28:49;103218.53;;;6.83;100.00
2178;BME280;1095;50.992;6.798;2023-02-12T08:31:19;103210.44;;;6.89;100.00
2178;BME280;1095;50.992;6.798;2023-02-12T08:33:47;103215.50;;;6.92;100.00
2178;BME280;1095;50.992;6.798;2023-02-12T08:36:18;103209.69;;;7.06;100.00
2178;BME280;1095;50.992;6.798;2023-02-12T08:38:45;103219.38;;;7.03;100.00
2178;BME280;1095;50.992;6.798;2023-02-12T08:41:14;103217.06;;;6.96;100.00
2178;BME280;1095;50.992;6.798;2023-02-12T08:43:41;103210.81;;;7.01;100.00
2178;BME280;1095;50.992;6.798;2023-02-12T08:46:11;103215.22;;;6.98;100.00
2178;BME280;1095;50.992;6.798;2023-02-12T08:48:38;103219.59;;;7.17;100.00
2178;BME280;1095;50.992;6.798;2023-02-12T08:51:07;103220.44;;;6.98;100.00
2178;BME280;1095;50.992;6.798;2023-02-12T08:53:35;103219.59;;;6.98;100.00
2178;BME280;1095;50.992;6.798;2023-02-12T08:56:03;103212.34;;;7.05;100.00
2178;BME280;1095;50.992;6.798;2023-02-12T08:58:30;103210.66;;;7.04;100.00
2178;BME280;1095;50.992;6.798;2023-02-12T09:00:57;103221.72;;;7.09;100.00
2178;BME280;1095;50.992;6.798;2023-02-12T09:03:24;103215.50;;;7.30;100.00
2178;BME280;1095;50.992;6.798;2023-02-12T09:05:51;103220.28;;;7.39;100.00
2178;BME280;1095;50.992;6.798;2023-02-12T09:08:18;103214.09;;;7.23;100.00
2178;BME280;1095;50.992;6.798;2023-02-12T09:10:46;103220.84;;;7.27;100.00
2178;BME280;1095;50.992;6.798;2023-02-12T09:13:13;103213.03;;;7.27;100.00
2178;BME280;1095;50.992;6.798;2023-02-12T09:15:41;103223.66;;;7.41;100.00
2178;BME280;1095;50.992;6.798;2023-02-12T09:18:08;103229.13;;;7.54;100.00
2178;BME280;1095;50.992;6.798;2023-02-12T09:20:36;103227.41;;;7.72;100.00
2178;BME280;1095;50.992;6.798;2023-02-12T09:23:04;103234.03;;;7.60;100.00
2178;BME280;1095;50.992;6.798;2023-02-12T09:25:30;103231.00;;;7.69;100.00
2178;BME280;1095;50.992;6.798;2023-02-12T09:28:00;103222.66;;;7.80;100.00
2178;BME280;1095;50.992;6.798;2023-02-12T09:30:26;103227.78;;;7.81;100.00
2178;BME280;1095;50.992;6.798;2023-02-12T09:32:53;103233.63;;;8.04;100.00
2178;BME280;1095;50.992;6.798;2023-02-12T09:35:20;103232.31;;;8.12;100.00
2178;BME280;1095;50.992;6.798;2023-02-12T09:37:47;103233.41;;;8.25;100.00
2178;BME280;1095;50.992;6.798;2023-02-12T09:40:17;103231.88;;;8.21;100.00
2178;BME280;1095;50.992;6.798;2023-02-12T09:42:58;103224.66;;;8.09;100.00
2178;BME280;1095;50.992;6.798;2023-02-12T09:45:31;103232.47;;;8.09;100.00
2178;BME280;1095;50.992;6.798;2023-02-12T09:48:08;103236.09;;;8.24;100.00
2178;BME280;1095;50.992;6.798;2023-02-12T09:50:43;103234.50;;;8.39;100.00
2178;BME280;1095;50.992;6.798;2023-02-12T09:53:13;103231.09;;;8.19;100.00
2178;BME280;1095;50.992;6.798;2023-02-12T09:55:42;103246.31;;;8.46;100.00
2178;BME280;1095;50.992;6.798;2023-02-12T09:58:14;103252.88;;;8.53;100.00
2178;BME280;1095;50.992;6.798;2023-02-12T10:00:43;103243.06;;;8.58;100.00
2178;BME280;1095;50.992;6.798;2023-02-12T10:03:13;103238.25;;;8.83;100.00
2178;BME280;1095;50.992;6.798;2023-02-12T10:05:44;103242.06;;;8.93;99.32
2178;BME280;1095;50.992;6.798;2023-02-12T10:08:25;103235.16;;;8.92;99.31
2178;BME280;1095;50.992;6.798;2023-02-12T10:11:00;103233.78;;;8.85;98.96
2178;BME280;1095;50.992;6.798;2023-02-12T10:13:40;103244.56;;;8.79;98.70
2178;BME280;1095;50.992;6.798;2023-02-12T10:16:16;103242.47;;;8.86;98.32
2178;BME280;1095;50.992;6.798;2023-02-12T10:18:59;103245.44;;;8.95;97.93
2178;BME280;1095;50.992;6.798;2023-02-12T10:21:39;103245.44;;;8.95;97.18
2178;BME280;1095;50.992;6.798;2023-02-12T10:24:29;103244.69;;;8.93;97.08
2178;BME280;1095;50.992;6.798;2023-02-12T10:27:02;103246.94;;;8.84;97.28
2178;BME280;1095;50.992;6.798;2023-02-12T10:29:32;103245.53;;;8.94;96.94
2178;BME280;1095;50.992;6.798;2023-02-12T10:32:05;103239.53;;;9.08;96.56
2178;BME280;1095;50.992;6.798;2023-02-12T10:34:35;103231.31;;;9.31;95.43
2178;BME280;1095;50.992;6.798;2023-02-12T10:37:04;103240.66;;;9.35;94.80
2178;BME280;1095;50.992;6.798;2023-02-12T10:39:37;103240.06;;;9.30;94.46
2178;BME280;1095;50.992;6.798;2023-02-12T10:42:10;103240.56;;;9.21;94.68
2178;BME280;1095;50.992;6.798;2023-02-12T10:44:40;103232.66;;;9.38;93.77
2178;BME280;1095;50.992;6.798;2023-02-12T10:47:11;103230.22;;;9.35;93.73
2178;BME280;1095;50.992;6.798;2023-02-12T10:49:41;103219.00;;;9.33;93.67
2178;BME280;1095;50.992;6.798;2023-02-12T10:52:11;103217.47;;;9.13;93.58
2178;BME280;1095;50.992;6.798;2023-02-12T10:54:43;103216.34;;;9.49;92.92
2178;BME280;1095;50.992;6.798;2023-02-12T10:57:13;103216.97;;;9.22;92.44
2178;BME280;1095;50.992;6.798;2023-02-12T10:59:41;103219.16;;;9.30;93.06
2178;BME280;1095;50.992;6.798;2023-02-12T11:02:22;103212.66;;;9.06;93.05
2178;BME280;1095;50.992;6.798;2023-02-12T11:04:49;103226.75;;;9.19;93.10
2178;BME280;1095;50.992;6.798;2023-02-12T11:07:16;103221.53;;;9.35;92.22
2178;BME280;1095;50.992;6.798;2023-02-12T11:09:48;103219.13;;;9.46;92.14
2178;BME280;1095;50.992;6.798;2023-02-12T11:12:29;103215.47;;;9.34;91.45
2178;BME280;1095;50.992;6.798;2023-02-12T11:14:57;103212.44;;;9.26;91.12
2178;BME280;1095;50.992;6.798;2023-02-12T11:17:30;103208.03;;;9.42;90.97
2178;BME280;1095;50.992;6.798;2023-02-12T11:20:06;103214.56;;;9.65;90.73
2178;BME280;1095;50.992;6.798;2023-02-12T11:22:35;103200.41;;;9.69;90.02
2178;BME280;1095;50.992;6.798;2023-02-12T11:25:13;103197.81;;;9.53;89.52
2178;BME280;1095;50.992;6.798;2023-02-12T11:27:41;103201.66;;;9.62;89.67
2178;BME280;1095;50.992;6.798;2023-02-12T11:30:15;103190.19;;;9.64;89.24
2178;BME280;1095;50.992;6.798;2023-02-12T11:32:44;103198.88;;;9.65;89.37
2178;BME280;1095;50.992;6.798;2023-02-12T11:35:13;103191.38;;;9.59;89.09
2178;BME280;1095;50.992;6.798;2023-02-12T11:37:43;103185.88;;;9.79;88.89
2178;BME280;1095;50.992;6.798;2023-02-12T11:40:18;103174.75;;;9.76;88.20
2178;BME280;1095;50.992;6.798;2023-02-12T11:42:48;103177.22;;;9.47;88.74
2178;BME280;1095;50.992;6.798;2023-02-12T11:45:17;103183.81;;;9.54;88.36
2178;BME280;1095;50.992;6.798;2023-02-12T11:47:46;103179.47;;;9.69;88.46
2178;BME280;1095;50.992;6.798;2023-02-12T11:50:23;103166.84;;;9.61;87.97
2178;BME280;1095;50.992;6.798;2023-02-12T11:52:53;103170.16;;;9.49;88.13
2178;BME280;1095;50.992;6.798;2023-02-12T11:55:23;103168.78;;;9.58;88.22
2178;BME280;1095;50.992;6.798;2023-02-12T11:58:01;103166.91;;;9.76;87.29
2178;BME280;1095;50.992;6.798;2023-02-12T12:00:37;103164.50;;;9.87;87.44
2178;BME280;1095;50.992;6.798;2023-02-12T12:06:55;103154.72;;;10.05;86.28
2178;BME280;1095;50.992;6.798;2023-02-12T12:09:28;103151.13;;;10.21;85.55
2178;BME280;1095;50.992;6.798;2023-02-12T12:12:05;103144.69;;;9.97;85.76
2178;BME280;1095;50.992;6.798;2023-02-12T12:14:39;103148.91;;;9.85;85.91
2178;BME280;1095;50.992;6.798;2023-02-12T12:17:24;103152.66;;;9.65;86.27
2178;BME280;1095;50.992;6.798;2023-02-12T12:20:13;103154.03;;;9.87;86.67
2178;BME280;1095;50.992;6.798;2023-02-12T12:22:47;103145.72;;;9.80;86.48
2178;BME280;1095;50.992;6.798;2023-02-12T12:25:21;103141.16;;;9.84;86.78
2178;BME280;1095;50.992;6.798;2023-02-12T12:27:58;103131.25;;;9.89;86.11
2178;BME280;1095;50.992;6.798;2023-02-12T12:31:04;103133.88;;;10.03;86.08
2178;BME280;1095;50.992;6.798;2023-02-12T12:33:37;103136.69;;;10.00;85.89
2178;BME280;1095;50.992;6.798;2023-02-12T12:39:22;103111.00;;;10.07;84.92
2178;BME280;1095;50.992;6.798;2023-02-12T12:45:00;103110.06;;;10.08;84.53
2178;BME280;1095;50.992;6.798;2023-02-12T12:47:34;103102.69;;;9.86;84.78
2178;BME280;1095;50.992;6.798;2023-02-12T12:50:22;103099.47;;;9.95;84.76
2178;BME280;1095;50.992;6.798;2023-02-12T12:53:06;103115.00;;;9.84;85.29
2178;BME280;1095;50.992;6.798;2023-02-12T12:55:52;103106.91;;;10.17;84.88
2178;BME280;1095;50.992;6.798;2023-02-12T12:58:36;103094.31;;;10.38;84.38
2178;BME280;1095;50.992;6.798;2023-02-12T13:01:20;103092.41;;;10.11;84.40
2178;BME280;1095;50.992;6.798;2023-02-12T13:04:04;103088.34;;;10.21;84.20
2178;BME280;1095;50.992;6.798;2023-02-12T13:06:46;103081.50;;;10.33;83.57
2178;BME280;1095;50.992;6.798;2023-02-12T13:09:31;103081.97;;;10.40;83.79
2178;BME280;1095;50.992;6.798;2023-02-12T13:12:17;103074.78;;;10.29;83.38
2178;BME280;1095;50.992;6.798;2023-02-12T13:14:55;103069.09;;;10.22;83.63
2178;BME280;1095;50.992;6.798;2023-02-12T13:17:27;103069.56;;;10.29;83.80
2178;BME280;1095;50.992;6.798;2023-02-12T13:20:04;103074.22;;;10.38;83.44
2178;BME280;1095;50.992;6.798;2023-02-12T13:22:38;103062.63;;;10.28;83.43
2178;BME280;1095;50.992;6.798;2023-02-12T13:25:20;103072.88;;;10.03;83.69
2178;BME280;1095;50.992;6.798;2023-02-12T13:27:50;103072.44;;;10.24;84.42
2178;BME280;1095;50.992;6.798;2023-02-12T13:30:20;103059.50;;;10.07;84.72
2178;BME280;1095;50.992;6.798;2023-02-12T13:32:50;103058.59;;;10.08;84.78
2178;BME280;1095;50.992;6.798;2023-02-12T13:35:22;103057.09;;;10.04;84.94
2178;BME280;1095;50.992;6.798;2023-02-12T13:37:52;103056.72;;;10.10;85.20
2178;BME280;1095;50.992;6.798;2023-02-12T13:40:22;103059.63;;;10.34;85.10
2178;BME280;1095;50.992;6.798;2023-02-12T13:42:55;103057.44;;;10.41;84.92
2178;BME280;1095;50.992;6.798;2023-02-12T13:45:32;103055.25;;;10.35;85.06
2178;BME280;1095;50.992;6.798;2023-02-12T13:51:19;103050.19;;;10.32;84.87
2178;BME280;1095;50.992;6.798;2023-02-12T13:53:56;103047.41;;;10.35;85.44
2178;BME280;1095;50.992;6.798;2023-02-12T13:56:33;103047.22;;;10.38;85.19
2178;BME280;1095;50.992;6.798;2023-02-12T13:59:42;103036.25;;;10.03;85.59
2178;BME280;1095;50.992;6.798;2023-02-12T14:02:42;103040.63;;;10.02;86.28